Aérodrome :
LOGIN :

S'inscrire | Disclaimer

   EN    FR    IT 

 










Légende :    VFR   VFR Marginal   IFR   IFR Intensif   IFR Très Intensif
Visi : 
Plafond : 
>= 8 km
>= 3000ft
5 à 8 km
1000 à 3000 ft
1500m à 5 km
500 à 1000 ft
800 à 1500m
200 à 500 ft
< 800m
< 200 ft
Symboles :   Orages  Brouillard  Fortes neiges  Fortes précipitations  Vent > 20 kt
SIGMETs :   Divers  Orages  Givrage  Turbulence  Onde Orograph.  Cendres Volcan.







- Altitude de l'aérodrome : 39 ft
- Code IATA : ANR


EBAW - Anvers / Antwerpen Deurne

DERNIER METAR :
  • 190950Z 25006KT 9999 FEW020 07/04 Q1020 NOSIG

METARs EXPIRÉS :
  • 190920Z 25007KT 9999 FEW020 SCT040 06/04 Q1020 RESHRA NOSIG
  • 190850Z 26005KT 7000 SHRA SCT018 SCT025 06/04 Q1019 NOSIG
  • 190820Z 26009KT 9999 FEW020 SCT035 06/04 Q1019 NOSIG
  • 190750Z 32006KT 270V360 7000 -SHRA SCT018 BKN035 06/03 Q1019 NOSIG

TAF AMD TAF EBAW
Valide du 19 à 09h jusqu'au 19 à 18h UTC


190956Z 1909/1918 30010KT 9999 SCT020 SCT040
TEMPO 1909/1913 4500 SHRA
Pas de NOTAMs connus pour ce terrain.



MET'MAP, la Météo Aéronautique d'un coup d'oeil ! - Copyright ORBIFLY Décembre 2007 - Disclaimer

ORBIFLY MET'MAP TEAM :

Programmation & Développement : Alexandra Zaïnal
Conception & Développement : Baudouin d'Aumeries
Co-Programmation & Développement : Marc-Olivier Méhu
Soutien technique & logistique : Manuel Goepfert

Contact : metmap@orbifly.com




SOURCES & CREDITS :

   NOAA